sensor_id;sensor_type;location;lat;lon;timestamp;pressure;altitude;pressure_sealevel;temperature;humidity
61528;BME280;47395;42.032;-8.634;2023-03-13T00:00:00;101035.59;;;16.83;64.06
61528;BME280;47395;42.032;-8.634;2023-03-13T00:02:01;101029.63;;;16.67;64.08
61528;BME280;47395;42.032;-8.634;2023-03-13T00:04:02;101020.75;;;16.92;63.97
61528;BME280;47395;42.032;-8.634;2023-03-13T00:06:03;101007.91;;;16.86;64.57
61528;BME280;47395;42.032;-8.634;2023-03-13T00:08:04;101033.47;;;16.76;64.40
61528;BME280;47395;42.032;-8.634;2023-03-13T00:10:06;101037.00;;;16.63;64.23
61528;BME280;47395;42.032;-8.634;2023-03-13T00:12:07;101027.91;;;16.92;64.00
61528;BME280;47395;42.032;-8.634;2023-03-13T00:14:08;101013.53;;;16.81;64.16
61528;BME280;47395;42.032;-8.634;2023-03-13T00:16:12;101019.00;;;16.80;63.99
61528;BME280;47395;42.032;-8.634;2023-03-13T00:18:13;101033.13;;;16.93;63.81
61528;BME280;47395;42.032;-8.634;2023-03-13T00:20:14;101035.56;;;16.96;63.78
61528;BME280;47395;42.032;-8.634;2023-03-13T00:22:17;101033.25;;;16.79;63.84
61528;BME280;47395;42.032;-8.634;2023-03-13T00:24:17;101021.75;;;16.78;64.17
61528;BME280;47395;42.032;-8.634;2023-03-13T00:26:21;101026.13;;;16.79;64.27
61528;BME280;47395;42.032;-8.634;2023-03-13T00:28:22;101017.81;;;16.84;64.31
61528;BME280;47395;42.032;-8.634;2023-03-13T00:30:23;101012.28;;;16.74;64.45
61528;BME280;47395;42.032;-8.634;2023-03-13T00:32:24;100997.81;;;16.78;64.42
61528;BME280;47395;42.032;-8.634;2023-03-13T00:34:25;100993.78;;;16.73;64.20
61528;BME280;47395;42.032;-8.634;2023-03-13T00:36:29;101003.69;;;16.70;64.19
61528;BME280;47395;42.032;-8.634;2023-03-13T00:38:31;101002.50;;;16.62;64.69
61528;BME280;47395;42.032;-8.634;2023-03-13T00:40:32;101007.38;;;16.68;64.83
61528;BME280;47395;42.032;-8.634;2023-03-13T00:42:32;100999.13;;;16.60;64.92
61528;BME280;47395;42.032;-8.634;2023-03-13T00:44:33;100995.06;;;16.67;64.68
61528;BME280;47395;42.032;-8.634;2023-03-13T00:46:35;100989.97;;;16.51;64.71
61528;BME280;47395;42.032;-8.634;2023-03-13T00:48:37;100986.44;;;16.50;64.56
61528;BME280;47395;42.032;-8.634;2023-03-13T00:50:38;100979.34;;;16.64;64.51
61528;BME280;47395;42.032;-8.634;2023-03-13T00:52:38;100980.28;;;16.50;64.58
61528;BME280;47395;42.032;-8.634;2023-03-13T00:54:39;100981.03;;;16.65;64.94
61528;BME280;47395;42.032;-8.634;2023-03-13T00:56:40;100973.28;;;16.36;64.91
61528;BME280;47395;42.032;-8.634;2023-03-13T00:58:43;100974.03;;;16.38;64.50
61528;BME280;47395;42.032;-8.634;2023-03-13T01:00:44;100973.28;;;16.36;65.01
61528;BME280;47395;42.032;-8.634;2023-03-13T01:02:46;100978.25;;;16.27;65.38
61528;BME280;47395;42.032;-8.634;2023-03-13T01:04:47;100986.91;;;16.31;65.51
61528;BME280;47395;42.032;-8.634;2023-03-13T01:06:48;100978.69;;;16.21;65.85
61528;BME280;47395;42.032;-8.634;2023-03-13T01:08:49;100987.41;;;16.23;65.72
61528;BME280;47395;42.032;-8.634;2023-03-13T01:10:51;100997.84;;;16.26;65.56
61528;BME280;47395;42.032;-8.634;2023-03-13T01:12:56;100991.22;;;16.19;66.46
61528;BME280;47395;42.032;-8.634;2023-03-13T01:14:58;100991.66;;;16.00;66.49
61528;BME280;47395;42.032;-8.634;2023-03-13T01:16:59;100993.78;;;16.08;66.42
61528;BME280;47395;42.032;-8.634;2023-03-13T01:19:03;100992.91;;;16.07;66.48
61528;BME280;47395;42.032;-8.634;2023-03-13T01:21:04;100986.13;;;16.03;66.41
61528;BME280;47395;42.032;-8.634;2023-03-13T01:23:06;100995.38;;;15.97;66.58
61528;BME280;47395;42.032;-8.634;2023-03-13T01:25:07;100986.22;;;16.01;66.49
61528;BME280;47395;42.032;-8.634;2023-03-13T01:27:08;101002.91;;;16.03;66.26
61528;BME280;47395;42.032;-8.634;2023-03-13T01:29:09;100998.28;;;16.20;66.09
61528;BME280;47395;42.032;-8.634;2023-03-13T01:31:14;101001.56;;;16.11;66.04
61528;BME280;47395;42.032;-8.634;2023-03-13T01:33:17;100995.28;;;16.12;66.40
61528;BME280;47395;42.032;-8.634;2023-03-13T01:35:17;100995.38;;;16.23;66.00
61528;BME280;47395;42.032;-8.634;2023-03-13T01:37:19;100991.56;;;16.40;65.57
61528;BME280;47395;42.032;-8.634;2023-03-13T01:39:20;100976.78;;;16.49;65.75
61528;BME280;47395;42.032;-8.634;2023-03-13T01:41:21;100967.81;;;16.50;65.73
61528;BME280;47395;42.032;-8.634;2023-03-13T01:43:28;100972.31;;;16.50;65.46
61528;BME280;47395;42.032;-8.634;2023-03-13T01:48:18;100966.78;;;16.53;66.06
61528;BME280;47395;42.032;-8.634;2023-03-13T01:50:22;100961.97;;;16.45;65.80
61528;BME280;47395;42.032;-8.634;2023-03-13T01:52:29;100963.81;;;16.31;65.77
61528;BME280;47395;42.032;-8.634;2023-03-13T01:54:55;100971.44;;;16.23;66.09
61528;BME280;47395;42.032;-8.634;2023-03-13T01:59:22;100969.03;;;16.46;65.58
61528;BME280;47395;42.032;-8.634;2023-03-13T02:01:25;100971.25;;;16.52;65.57
61528;BME280;47395;42.032;-8.634;2023-03-13T02:03:27;100963.38;;;16.64;65.40
61528;BME280;47395;42.032;-8.634;2023-03-13T02:05:29;100965.22;;;16.24;65.58
61528;BME280;47395;42.032;-8.634;2023-03-13T02:07:38;100966.56;;;16.17;66.56
61528;BME280;47395;42.032;-8.634;2023-03-13T02:09:42;100957.53;;;16.33;65.84
61528;BME280;47395;42.032;-8.634;2023-03-13T02:14:02;100957.81;;;16.67;65.23
61528;BME280;47395;42.032;-8.634;2023-03-13T02:16:05;100932.97;;;16.42;65.46
61528;BME280;47395;42.032;-8.634;2023-03-13T02:18:06;100947.66;;;16.22;65.98
61528;BME280;47395;42.032;-8.634;2023-03-13T02:20:09;100939.97;;;16.30;65.81
61528;BME280;47395;42.032;-8.634;2023-03-13T02:27:25;100944.66;;;16.26;66.32
61528;BME280;47395;42.032;-8.634;2023-03-13T02:29:26;100941.88;;;16.15;66.28
61528;BME280;47395;42.032;-8.634;2023-03-13T02:31:28;100933.31;;;16.24;66.47
61528;BME280;47395;42.032;-8.634;2023-03-13T02:33:34;100938.31;;;16.16;66.32
61528;BME280;47395;42.032;-8.634;2023-03-13T02:35:36;100930.31;;;16.16;66.58
61528;BME280;47395;42.032;-8.634;2023-03-13T02:37:42;100941.38;;;16.23;66.53
61528;BME280;47395;42.032;-8.634;2023-03-13T02:39:50;100949.34;;;16.23;66.58
61528;BME280;47395;42.032;-8.634;2023-03-13T02:41:52;100953.06;;;16.07;67.01
61528;BME280;47395;42.032;-8.634;2023-03-13T02:43:54;100942.53;;;16.31;66.55
61528;BME280;47395;42.032;-8.634;2023-03-13T02:46:12;100941.88;;;16.15;66.87
61528;BME280;47395;42.032;-8.634;2023-03-13T02:48:17;100948.81;;;16.04;67.25
61528;BME280;47395;42.032;-8.634;2023-03-13T02:50:19;100939.66;;;16.09;67.16
61528;BME280;47395;42.032;-8.634;2023-03-13T02:52:27;100933.19;;;16.13;67.08
61528;BME280;47395;42.032;-8.634;2023-03-13T02:54:33;100929.69;;;16.25;66.92
61528;BME280;47395;42.032;-8.634;2023-03-13T02:56:37;100925.41;;;16.10;67.46
61528;BME280;47395;42.032;-8.634;2023-03-13T02:58:43;100909.56;;;16.08;67.62
61528;BME280;47395;42.032;-8.634;2023-03-13T03:00:44;100901.50;;;16.23;67.06
61528;BME280;47395;42.032;-8.634;2023-03-13T03:02:45;100901.06;;;16.29;67.12
61528;BME280;47395;42.032;-8.634;2023-03-13T03:04:47;100898.75;;;16.11;67.52
61528;BME280;47395;42.032;-8.634;2023-03-13T03:06:48;100896.41;;;16.20;67.79
61528;BME280;47395;42.032;-8.634;2023-03-13T03:08:49;100896.19;;;16.23;67.45
61528;BME280;47395;42.032;-8.634;2023-03-13T03:10:50;100885.44;;;16.24;67.34
61528;BME280;47395;42.032;-8.634;2023-03-13T03:12:52;100870.03;;;16.29;67.27
61528;BME280;47395;42.032;-8.634;2023-03-13T03:14:52;100867.44;;;16.41;67.03
61528;BME280;47395;42.032;-8.634;2023-03-13T03:16:54;100873.03;;;16.12;67.74
61528;BME280;47395;42.032;-8.634;2023-03-13T03:18:55;100858.78;;;16.13;68.08
61528;BME280;47395;42.032;-8.634;2023-03-13T03:20:56;100852.38;;;16.28;67.70
61528;BME280;47395;42.032;-8.634;2023-03-13T03:22:57;100848.09;;;16.39;67.62
61528;BME280;47395;42.032;-8.634;2023-03-13T03:24:57;100845.94;;;16.44;67.87
61528;BME280;47395;42.032;-8.634;2023-03-13T03:26:58;100842.97;;;16.49;67.53
61528;BME280;47395;42.032;-8.634;2023-03-13T03:29:04;100853.34;;;16.14;67.85
61528;BME280;47395;42.032;-8.634;2023-03-13T03:31:09;100851.72;;;16.25;68.25
61528;BME280;47395;42.032;-8.634;2023-03-13T03:33:11;100855.50;;;16.09;68.66
61528;BME280;47395;42.032;-8.634;2023-03-13T03:35:12;100836.63;;;16.25;68.39
61528;BME280;47395;42.032;-8.634;2023-03-13T03:37:13;100839.53;;;16.09;69.12
61528;BME280;47395;42.032;-8.634;2023-03-13T03:39:14;100826.25;;;15.96;69.39
61528;BME280;47395;42.032;-8.634;2023-03-13T03:41:15;100835.59;;;16.02;69.86
61528;BME280;47395;42.032;-8.634;2023-03-13T03:43:16;100831.88;;;16.04;69.62
61528;BME280;47395;42.032;-8.634;2023-03-13T03:45:17;100826.47;;;16.06;69.12
61528;BME280;47395;42.032;-8.634;2023-03-13T03:47:18;100822.63;;;15.84;70.44
61528;BME280;47395;42.032;-8.634;2023-03-13T03:49:21;100812.97;;;15.96;70.22
61528;BME280;47395;42.032;-8.634;2023-03-13T03:51:22;100801.78;;;15.91;70.72
61528;BME280;47395;42.032;-8.634;2023-03-13T03:53:24;100786.59;;;15.80;70.92
61528;BME280;47395;42.032;-8.634;2023-03-13T03:55:25;100794.16;;;15.86;70.90
61528;BME280;47395;42.032;-8.634;2023-03-13T03:57:26;100802.22;;;15.98;70.76
61528;BME280;47395;42.032;-8.634;2023-03-13T03:59:27;100802.34;;;15.96;71.21
61528;BME280;47395;42.032;-8.634;2023-03-13T04:01:35;100803.31;;;15.95;71.21
61528;BME280;47395;42.032;-8.634;2023-03-13T04:03:37;100804.22;;;15.81;71.44
61528;BME280;47395;42.032;-8.634;2023-03-13T04:05:38;100810.59;;;15.78;72.14
61528;BME280;47395;42.032;-8.634;2023-03-13T04:07:40;100789.88;;;15.84;72.85
61528;BME280;47395;42.032;-8.634;2023-03-13T04:09:44;100790.97;;;15.68;74.60
61528;BME280;47395;42.032;-8.634;2023-03-13T04:11:53;100798.81;;;15.57;75.94
61528;BME280;47395;42.032;-8.634;2023-03-13T04:13:54;100794.25;;;15.33;77.08
61528;BME280;47395;42.032;-8.634;2023-03-13T04:15:56;100806.34;;;15.37;77.92
61528;BME280;47395;42.032;-8.634;2023-03-13T04:17:57;100789.56;;;15.23;80.53
61528;BME280;47395;42.032;-8.634;2023-03-13T04:19:58;100787.28;;;15.04;82.43
61528;BME280;47395;42.032;-8.634;2023-03-13T04:21:59;100781.53;;;14.84;83.89
61528;BME280;47395;42.032;-8.634;2023-03-13T04:24:00;100784.28;;;14.68;85.63
61528;BME280;47395;42.032;-8.634;2023-03-13T04:26:01;100776.84;;;14.60;86.57
61528;BME280;47395;42.032;-8.634;2023-03-13T04:28:02;100777.78;;;14.59;87.08
61528;BME280;47395;42.032;-8.634;2023-03-13T04:30:11;100776.56;;;14.51;87.80
61528;BME280;47395;42.032;-8.634;2023-03-13T04:32:30;100773.53;;;14.57;88.40
61528;BME280;47395;42.032;-8.634;2023-03-13T04:34:54;100793.06;;;14.56;88.74
61528;BME280;47395;42.032;-8.634;2023-03-13T04:37:18;100789.59;;;14.68;88.78
61528;BME280;47395;42.032;-8.634;2023-03-13T04:39:35;100784.50;;;14.65;89.39
61528;BME280;47395;42.032;-8.634;2023-03-13T04:42:02;100772.06;;;14.66;89.44
61528;BME280;47395;42.032;-8.634;2023-03-13T04:44:21;100769.13;;;14.70;90.00
61528;BME280;47395;42.032;-8.634;2023-03-13T04:46:34;100767.41;;;14.84;89.69
61528;BME280;47395;42.032;-8.634;2023-03-13T04:48:56;100766.78;;;14.66;90.74
61528;BME280;47395;42.032;-8.634;2023-03-13T04:51:05;100759.16;;;14.74;90.44
61528;BME280;47395;42.032;-8.634;2023-03-13T04:53:29;100754.91;;;14.71;90.94
61528;BME280;47395;42.032;-8.634;2023-03-13T04:55:46;100755.19;;;14.81;90.36
61528;BME280;47395;42.032;-8.634;2023-03-13T04:58:11;100744.84;;;14.91;89.68
61528;BME280;47395;42.032;-8.634;2023-03-13T05:00:41;100732.97;;;14.69;90.60
61528;BME280;47395;42.032;-8.634;2023-03-13T05:05:13;100736.44;;;14.70;90.76
61528;BME280;47395;42.032;-8.634;2023-03-13T05:07:30;100726.31;;;14.77;89.88
61528;BME280;47395;42.032;-8.634;2023-03-13T05:09:47;100732.22;;;14.67;90.14
61528;BME280;47395;42.032;-8.634;2023-03-13T05:12:18;100731.81;;;14.73;89.99
61528;BME280;47395;42.032;-8.634;2023-03-13T05:14:54;100728.22;;;14.74;90.27
61528;BME280;47395;42.032;-8.634;2023-03-13T05:17:06;100733.34;;;14.63;90.41
61528;BME280;47395;42.032;-8.634;2023-03-13T05:19:25;100722.53;;;14.53;91.65
61528;BME280;47395;42.032;-8.634;2023-03-13T05:21:52;100714.06;;;14.61;91.91
61528;BME280;47395;42.032;-8.634;2023-03-13T05:24:16;100720.63;;;14.55;92.30
61528;BME280;47395;42.032;-8.634;2023-03-13T05:26:28;100719.75;;;14.55;92.42
61528;BME280;47395;42.032;-8.634;2023-03-13T05:28:44;100721.13;;;14.47;92.93
61528;BME280;47395;42.032;-8.634;2023-03-13T05:31:17;100715.22;;;14.57;92.68
61528;BME280;47395;42.032;-8.634;2023-03-13T05:33:32;100720.72;;;14.54;93.32
61528;BME280;47395;42.032;-8.634;2023-03-13T05:35:39;100713.53;;;14.56;93.50
61528;BME280;47395;42.032;-8.634;2023-03-13T05:38:12;100702.16;;;14.54;93.52
61528;BME280;47395;42.032;-8.634;2023-03-13T05:40:33;100719.47;;;14.59;93.18
61528;BME280;47395;42.032;-8.634;2023-03-13T05:43:03;100723.69;;;14.49;93.60
61528;BME280;47395;42.032;-8.634;2023-03-13T05:45:24;100737.06;;;14.60;93.83
61528;BME280;47395;42.032;-8.634;2023-03-13T05:47:45;100734.31;;;14.62;93.69
61528;BME280;47395;42.032;-8.634;2023-03-13T05:50:07;100731.66;;;14.62;94.52
61528;BME280;47395;42.032;-8.634;2023-03-13T05:52:28;100743.34;;;14.72;94.22
61528;BME280;47395;42.032;-8.634;2023-03-13T05:55:08;100741.06;;;14.81;93.80
61528;BME280;47395;42.032;-8.634;2023-03-13T05:57:38;100749.16;;;14.65;94.79
61528;BME280;47395;42.032;-8.634;2023-03-13T05:59:57;100752.59;;;14.67;94.82
61528;BME280;47395;42.032;-8.634;2023-03-13T06:02:19;100749.16;;;14.65;95.50
61528;BME280;47395;42.032;-8.634;2023-03-13T06:04:21;100745.47;;;14.67;95.16
61528;BME280;47395;42.032;-8.634;2023-03-13T06:06:22;100745.75;;;14.77;95.14
61528;BME280;47395;42.032;-8.634;2023-03-13T06:08:25;100735.28;;;15.01;93.77
61528;BME280;47395;42.032;-8.634;2023-03-13T06:10:27;100740.16;;;14.95;93.96
61528;BME280;47395;42.032;-8.634;2023-03-13T06:12:29;100744.13;;;15.15;93.23
61528;BME280;47395;42.032;-8.634;2023-03-13T06:14:30;100743.16;;;15.03;93.47
61528;BME280;47395;42.032;-8.634;2023-03-13T06:16:57;100734.22;;;15.04;93.89
61528;BME280;47395;42.032;-8.634;2023-03-13T06:18:59;100728.81;;;15.06;94.20
61528;BME280;47395;42.032;-8.634;2023-03-13T06:21:02;100737.13;;;15.14;94.29
61528;BME280;47395;42.032;-8.634;2023-03-13T06:23:03;100739.88;;;15.12;94.84
61528;BME280;47395;42.032;-8.634;2023-03-13T06:25:05;100734.56;;;15.25;94.03
61528;BME280;47395;42.032;-8.634;2023-03-13T06:27:06;100742.13;;;15.32;93.83
61528;BME280;47395;42.032;-8.634;2023-03-13T06:29:08;100745.41;;;15.22;94.40
61528;BME280;47395;42.032;-8.634;2023-03-13T06:31:09;100746.03;;;15.26;94.07
61528;BME280;47395;42.032;-8.634;2023-03-13T06:33:10;100745.50;;;15.34;93.56
61528;BME280;47395;42.032;-8.634;2023-03-13T06:35:11;100756.78;;;15.37;93.46
61528;BME280;47395;42.032;-8.634;2023-03-13T06:37:13;100759.88;;;15.44;93.57
61528;BME280;47395;42.032;-8.634;2023-03-13T06:39:14;100755.19;;;15.48;93.52
61528;BME280;47395;42.032;-8.634;2023-03-13T06:41:15;100745.31;;;15.37;93.71
61528;BME280;47395;42.032;-8.634;2023-03-13T06:43:16;100736.38;;;15.51;93.48
61528;BME280;47395;42.032;-8.634;2023-03-13T06:45:17;100747.94;;;15.50;93.56
61528;BME280;47395;42.032;-8.634;2023-03-13T06:47:18;100750.84;;;15.47;93.66
61528;BME280;47395;42.032;-8.634;2023-03-13T06:49:19;100746.88;;;15.52;93.42
61528;BME280;47395;42.032;-8.634;2023-03-13T06:51:21;100720.88;;;15.58;92.42
61528;BME280;47395;42.032;-8.634;2023-03-13T06:53:24;100728.50;;;15.62;92.42
61528;BME280;47395;42.032;-8.634;2023-03-13T06:55:25;100704.81;;;15.72;91.96
61528;BME280;47395;42.032;-8.634;2023-03-13T06:57:26;100705.78;;;15.58;92.01
61528;BME280;47395;42.032;-8.634;2023-03-13T06:59:27;100707.25;;;15.62;92.04
61528;BME280;47395;42.032;-8.634;2023-03-13T07:01:28;100711.94;;;15.59;92.41
61528;BME280;47395;42.032;-8.634;2023-03-13T07:03:29;100710.66;;;15.51;92.28
61528;BME280;47395;42.032;-8.634;2023-03-13T07:05:30;100720.63;;;15.61;92.11
61528;BME280;47395;42.032;-8.634;2023-03-13T07:07:31;100717.34;;;15.70;91.31
61528;BME280;47395;42.032;-8.634;2023-03-13T07:09:33;100726.59;;;15.64;91.64
61528;BME280;47395;42.032;-8.634;2023-03-13T07:11:34;100731.38;;;15.72;91.48
61528;BME280;47395;42.032;-8.634;2023-03-13T07:13:35;100723.81;;;15.66;91.49
61528;BME280;47395;42.032;-8.634;2023-03-13T07:15:36;100723.28;;;15.61;91.81
61528;BME280;47395;42.032;-8.634;2023-03-13T07:17:37;100714.41;;;15.62;91.47
61528;BME280;47395;42.032;-8.634;2023-03-13T07:19:38;100721.81;;;15.70;90.77
61528;BME280;47395;42.032;-8.634;2023-03-13T07:21:39;100724.38;;;15.71;90.80
61528;BME280;47395;42.032;-8.634;2023-03-13T07:23:40;100716.59;;;15.68;91.01
61528;BME280;47395;42.032;-8.634;2023-03-13T07:25:41;100714.81;;;15.69;90.68
61528;BME280;47395;42.032;-8.634;2023-03-13T07:27:42;100721.16;;;15.66;90.45
61528;BME280;47395;42.032;-8.634;2023-03-13T07:29:43;100705.31;;;15.77;90.33
61528;BME280;47395;42.032;-8.634;2023-03-13T07:31:45;100737.00;;;15.81;89.95
61528;BME280;47395;42.032;-8.634;2023-03-13T07:33:46;100723.72;;;15.81;89.30
61528;BME280;47395;42.032;-8.634;2023-03-13T07:35:49;100737.91;;;15.92;88.85
61528;BME280;47395;42.032;-8.634;2023-03-13T07:37:51;100745.47;;;15.86;89.04
61528;BME280;47395;42.032;-8.634;2023-03-13T07:39:52;100733.78;;;15.88;88.89
61528;BME280;47395;42.032;-8.634;2023-03-13T07:41:53;100742.72;;;15.87;88.17
61528;BME280;47395;42.032;-8.634;2023-03-13T07:43:54;100746.09;;;15.89;88.48
61528;BME280;47395;42.032;-8.634;2023-03-13T07:45:58;100743.78;;;15.85;88.40
61528;BME280;47395;42.032;-8.634;2023-03-13T07:47:59;100750.38;;;15.79;87.82
61528;BME280;47395;42.032;-8.634;2023-03-13T07:50:00;100759.31;;;15.78;86.79
61528;BME280;47395;42.032;-8.634;2023-03-13T07:52:01;100756.31;;;15.83;87.60
61528;BME280;47395;42.032;-8.634;2023-03-13T07:54:02;100757.16;;;15.83;86.65
61528;BME280;47395;42.032;-8.634;2023-03-13T07:56:09;100765.25;;;15.95;86.42
61528;BME280;47395;42.032;-8.634;2023-03-13T07:58:10;100762.38;;;15.98;86.47
61528;BME280;47395;42.032;-8.634;2023-03-13T08:00:13;100767.91;;;15.82;86.60
61528;BME280;47395;42.032;-8.634;2023-03-13T08:02:18;100754.63;;;15.82;86.44
61528;BME280;47395;42.032;-8.634;2023-03-13T08:04:20;100759.09;;;15.94;86.58
61528;BME280;47395;42.032;-8.634;2023-03-13T08:06:23;100767.25;;;15.91;86.30
61528;BME280;47395;42.032;-8.634;2023-03-13T08:08:24;100772.03;;;15.86;87.03
61528;BME280;47395;42.032;-8.634;2023-03-13T08:10:25;100781.41;;;15.91;87.21
61528;BME280;47395;42.032;-8.634;2023-03-13T08:12:26;100782.66;;;15.86;86.75
61528;BME280;47395;42.032;-8.634;2023-03-13T08:14:28;100787.22;;;15.84;86.65
61528;BME280;47395;42.032;-8.634;2023-03-13T08:16:31;100797.22;;;15.80;86.97
61528;BME280;47395;42.032;-8.634;2023-03-13T08:18:35;100790.44;;;15.89;86.99
61528;BME280;47395;42.032;-8.634;2023-03-13T08:20:36;100804.47;;;15.78;86.94
61528;BME280;47395;42.032;-8.634;2023-03-13T08:22:37;100807.97;;;15.91;86.62
61528;BME280;47395;42.032;-8.634;2023-03-13T08:24:38;100806.38;;;15.89;86.87
61528;BME280;47395;42.032;-8.634;2023-03-13T08:26:40;100804.34;;;15.92;86.76
61528;BME280;47395;42.032;-8.634;2023-03-13T08:28:43;100814.56;;;15.99;85.99
61528;BME280;47395;42.032;-8.634;2023-03-13T08:30:44;100806.56;;;16.12;85.89
61528;BME280;47395;42.032;-8.634;2023-03-13T08:32:45;100815.94;;;15.91;84.69
61528;BME280;47395;42.032;-8.634;2023-03-13T08:34:46;100809.84;;;15.89;83.88
61528;BME280;47395;42.032;-8.634;2023-03-13T08:36:47;100810.00;;;16.01;83.22
61528;BME280;47395;42.032;-8.634;2023-03-13T08:38:48;100823.34;;;16.12;81.34
61528;BME280;47395;42.032;-8.634;2023-03-13T08:40:49;100818.78;;;16.01;81.25
61528;BME280;47395;42.032;-8.634;2023-03-13T08:42:55;100816.34;;;16.11;80.68
61528;BME280;47395;42.032;-8.634;2023-03-13T08:44:56;100831.84;;;16.30;78.84
61528;BME280;47395;42.032;-8.634;2023-03-13T08:46:59;100823.03;;;16.54;79.11
61528;BME280;47395;42.032;-8.634;2023-03-13T08:49:00;100830.38;;;16.88;76.96
61528;BME280;47395;42.032;-8.634;2023-03-13T08:51:07;100832.31;;;17.58;73.57
61528;BME280;47395;42.032;-8.634;2023-03-13T08:53:08;100829.81;;;18.13;70.62
61528;BME280;47395;42.032;-8.634;2023-03-13T08:55:09;100832.97;;;18.19;69.71
61528;BME280;47395;42.032;-8.634;2023-03-13T08:57:10;100825.19;;;17.11;71.87
61528;BME280;47395;42.032;-8.634;2023-03-13T08:59:11;100845.09;;;17.05;73.82
61528;BME280;47395;42.032;-8.634;2023-03-13T09:01:13;100850.19;;;16.84;74.86
61528;BME280;47395;42.032;-8.634;2023-03-13T09:03:14;100833.03;;;16.88;73.64
61528;BME280;47395;42.032;-8.634;2023-03-13T09:05:15;100828.63;;;16.76;71.95
61528;BME280;47395;42.032;-8.634;2023-03-13T09:07:16;100832.78;;;16.91;71.35
61528;BME280;47395;42.032;-8.634;2023-03-13T09:09:17;100847.00;;;17.03;70.69
61528;BME280;47395;42.032;-8.634;2023-03-13T09:11:20;100822.13;;;17.04;71.03
61528;BME280;47395;42.032;-8.634;2023-03-13T09:13:21;100826.50;;;17.17;71.54
61528;BME280;47395;42.032;-8.634;2023-03-13T09:15:22;100832.63;;;17.30;69.91
61528;BME280;47395;42.032;-8.634;2023-03-13T09:17:23;100837.09;;;17.30;70.72
61528;BME280;47395;42.032;-8.634;2023-03-13T09:19:25;100834.31;;;17.31;68.99
61528;BME280;47395;42.032;-8.634;2023-03-13T09:21:29;100832.63;;;17.30;68.89
61528;BME280;47395;42.032;-8.634;2023-03-13T09:23:30;100837.31;;;17.02;68.30
61528;BME280;47395;42.032;-8.634;2023-03-13T09:25:32;100835.19;;;17.43;67.28
61528;BME280;47395;42.032;-8.634;2023-03-13T09:27:33;100835.25;;;17.19;67.60
61528;BME280;47395;42.032;-8.634;2023-03-13T09:29:34;100830.63;;;17.21;66.50
61528;BME280;47395;42.032;-8.634;2023-03-13T09:31:39;100849.97;;;17.12;66.62
61528;BME280;47395;42.032;-8.634;2023-03-13T09:33:42;100838.81;;;17.42;65.64
61528;BME280;47395;42.032;-8.634;2023-03-13T09:35:43;100843.06;;;17.09;67.23
61528;BME280;47395;42.032;-8.634;2023-03-13T09:37:50;100835.34;;;16.93;67.51
61528;BME280;47395;42.032;-8.634;2023-03-13T09:39:51;100847.34;;;16.74;68.14
61528;BME280;47395;42.032;-8.634;2023-03-13T09:42:15;100863.59;;;16.45;69.76
61528;BME280;47395;42.032;-8.634;2023-03-13T09:44:26;100877.00;;;16.43;70.67
61528;BME280;47395;42.032;-8.634;2023-03-13T09:46:44;100871.97;;;16.52;71.04
61528;BME280;47395;42.032;-8.634;2023-03-13T09:48:52;100876.06;;;16.31;71.38
61528;BME280;47395;42.032;-8.634;2023-03-13T09:51:12;100873.00;;;16.38;71.61
61528;BME280;47395;42.032;-8.634;2023-03-13T09:53:29;100874.47;;;16.42;71.59
61528;BME280;47395;42.032;-8.634;2023-03-13T09:55:35;100867.97;;;16.46;71.32
61528;BME280;47395;42.032;-8.634;2023-03-13T09:57:47;100868.38;;;16.53;70.22
61528;BME280;47395;42.032;-8.634;2023-03-13T09:59:57;100870.94;;;16.79;70.60
61528;BME280;47395;42.032;-8.634;2023-03-13T10:01:59;100866.28;;;16.69;69.92
61528;BME280;47395;42.032;-8.634;2023-03-13T10:04:28;100870.22;;;17.01;68.81
61528;BME280;47395;42.032;-8.634;2023-03-13T10:06:35;100882.38;;;16.17;74.29
61528;BME280;47395;42.032;-8.634;2023-03-13T10:08:39;100871.50;;;16.21;74.35
61528;BME280;47395;42.032;-8.634;2023-03-13T10:12:48;100873.72;;;17.62;70.13
61528;BME280;47395;42.032;-8.634;2023-03-13T10:15:02;100881.13;;;18.17;65.06
61528;BME280;47395;42.032;-8.634;2023-03-13T10:17:29;100883.56;;;17.61;65.41
61528;BME280;47395;42.032;-8.634;2023-03-13T10:19:34;100889.34;;;17.55;66.37
61528;BME280;47395;42.032;-8.634;2023-03-13T10:21:37;100896.00;;;17.25;67.25
61528;BME280;47395;42.032;-8.634;2023-03-13T10:23:56;100895.97;;;17.14;67.47
61528;BME280;47395;42.032;-8.634;2023-03-13T10:25:57;100898.94;;;17.33;66.32
61528;BME280;47395;42.032;-8.634;2023-03-13T10:27:58;100892.19;;;17.88;65.45
61528;BME280;47395;42.032;-8.634;2023-03-13T10:29:59;100886.66;;;18.25;63.85
61528;BME280;47395;42.032;-8.634;2023-03-13T10:32:03;100891.38;;;18.56;62.23
61528;BME280;47395;42.032;-8.634;2023-03-13T10:34:10;100890.06;;;19.06;61.49
61528;BME280;47395;42.032;-8.634;2023-03-13T10:36:12;100904.38;;;18.49;61.98
61528;BME280;47395;42.032;-8.634;2023-03-13T10:38:17;100902.72;;;18.81;60.85
61528;BME280;47395;42.032;-8.634;2023-03-13T10:40:23;100896.63;;;18.35;61.76
61528;BME280;47395;42.032;-8.634;2023-03-13T10:42:31;100906.59;;;17.85;63.24
61528;BME280;47395;42.032;-8.634;2023-03-13T10:44:33;100913.28;;;17.44;63.76
61528;BME280;47395;42.032;-8.634;2023-03-13T10:46:39;100907.88;;;17.57;64.80
61528;BME280;47395;42.032;-8.634;2023-03-13T10:48:40;100913.38;;;17.78;64.68
61528;BME280;47395;42.032;-8.634;2023-03-13T10:50:43;100902.75;;;17.90;64.61
61528;BME280;47395;42.032;-8.634;2023-03-13T10:52:46;100904.38;;;18.15;64.73
61528;BME280;47395;42.032;-8.634;2023-03-13T10:54:47;100898.44;;;18.34;63.23
61528;BME280;47395;42.032;-8.634;2023-03-13T10:56:49;100899.03;;;18.38;64.03
61528;BME280;47395;42.032;-8.634;2023-03-13T10:58:51;100888.84;;;18.66;62.30
61528;BME280;47395;42.032;-8.634;2023-03-13T11:01:29;100884.47;;;19.63;59.08
61528;BME280;47395;42.032;-8.634;2023-03-13T11:03:31;100894.50;;;20.14;58.17